sensor_id;sensor_type;location;lat;lon;timestamp;P1;durP1;ratioP1;P2;durP2;ratioP2
79346;SDS011;68815;48.810;44.482;2023-11-21T00:01:47;11.6;;;4.8;;
79346;SDS011;68815;48.810;44.482;2023-11-21T00:04:49;12.9;;;5.2;;
79346;SDS011;68815;48.810;44.482;2023-11-21T00:07:51;11.6;;;4.7;;
79346;SDS011;68815;48.810;44.482;2023-11-21T00:10:52;10.7;;;4.4;;
79346;SDS011;68815;48.810;44.482;2023-11-21T00:13:54;12.4;;;4.6;;
79346;SDS011;68815;48.810;44.482;2023-11-21T00:16:56;11.9;;;4.1;;
79346;SDS011;68815;48.810;44.482;2023-11-21T00:19:57;10.1;;;4.7;;
79346;SDS011;68815;48.810;44.482;2023-11-21T00:22:59;11.1;;;4.4;;
79346;SDS011;68815;48.810;44.482;2023-11-21T00:26:00;12.3;;;5;;
79346;SDS011;68815;48.810;44.482;2023-11-21T00:29:02;12.4;;;4.8;;
79346;SDS011;68815;48.810;44.482;2023-11-21T00:32:08;11.2;;;4.8;;
79346;SDS011;68815;48.810;44.482;2023-11-21T00:35:09;13.4;;;5;;
79346;SDS011;68815;48.810;44.482;2023-11-21T00:38:12;11.8;;;4.7;;
79346;SDS011;68815;48.810;44.482;2023-11-21T00:41:14;11.5;;;4.5;;
79346;SDS011;68815;48.810;44.482;2023-11-21T00:44:15;10.9;;;4.7;;
79346;SDS011;68815;48.810;44.482;2023-11-21T00:47:16;10.7;;;4.9;;
79346;SDS011;68815;48.810;44.482;2023-11-21T00:50:18;11.1;;;4.4;;
79346;SDS011;68815;48.810;44.482;2023-11-21T00:53:20;10.2;;;4.2;;
79346;SDS011;68815;48.810;44.482;2023-11-21T00:56:21;10.5;;;4;;
79346;SDS011;68815;48.810;44.482;2023-11-21T00:59:23;8.5;;;3.8;;
79346;SDS011;68815;48.810;44.482;2023-11-21T01:02:25;7.5;;;3;;
79346;SDS011;68815;48.810;44.482;2023-11-21T01:05:26;7.2;;;3.1;;
79346;SDS011;68815;48.810;44.482;2023-11-21T01:08:28;6.6;;;2.7;;
79346;SDS011;68815;48.810;44.482;2023-11-21T01:11:30;6;;;2.8;;
79346;SDS011;68815;48.810;44.482;2023-11-21T01:14:31;6.8;;;3;;
79346;SDS011;68815;48.810;44.482;2023-11-21T01:17:33;7;;;3;;
79346;SDS011;68815;48.810;44.482;2023-11-21T01:20:34;7.9;;;2.9;;
79346;SDS011;68815;48.810;44.482;2023-11-21T01:23:36;5.9;;;2.6;;
79346;SDS011;68815;48.810;44.482;2023-11-21T01:26:37;6.7;;;2.5;;
79346;SDS011;68815;48.810;44.482;2023-11-21T01:29:39;5.7;;;2.3;;
79346;SDS011;68815;48.810;44.482;2023-11-21T01:32:40;6.3;;;2.4;;
79346;SDS011;68815;48.810;44.482;2023-11-21T01:35:42;6.4;;;2.5;;
79346;SDS011;68815;48.810;44.482;2023-11-21T01:38:43;6.6;;;2.8;;
79346;SDS011;68815;48.810;44.482;2023-11-21T01:41:45;4.9;;;2.3;;
79346;SDS011;68815;48.810;44.482;2023-11-21T01:44:47;6.6;;;2.5;;
79346;SDS011;68815;48.810;44.482;2023-11-21T01:47:49;5.7;;;2.7;;
79346;SDS011;68815;48.810;44.482;2023-11-21T01:50:51;6;;;2.7;;
79346;SDS011;68815;48.810;44.482;2023-11-21T01:53:52;6.3;;;2.8;;
79346;SDS011;68815;48.810;44.482;2023-11-21T01:56:54;10.5;;;4.4;;
79346;SDS011;68815;48.810;44.482;2023-11-21T01:59:55;9.9;;;4.4;;
79346;SDS011;68815;48.810;44.482;2023-11-21T02:02:59;14.1;;;4.8;;
79346;SDS011;68815;48.810;44.482;2023-11-21T02:06:01;9.1;;;3.7;;
79346;SDS011;68815;48.810;44.482;2023-11-21T02:09:03;9.9;;;3.9;;
79346;SDS011;68815;48.810;44.482;2023-11-21T02:12:05;8.2;;;3.9;;
79346;SDS011;68815;48.810;44.482;2023-11-21T02:15:08;8.7;;;3.9;;
79346;SDS011;68815;48.810;44.482;2023-11-21T02:18:12;7.8;;;3.2;;
79346;SDS011;68815;48.810;44.482;2023-11-21T02:21:13;9.3;;;3.7;;
79346;SDS011;68815;48.810;44.482;2023-11-21T02:24:15;10.8;;;5;;
79346;SDS011;68815;48.810;44.482;2023-11-21T02:27:16;12.8;;;5.4;;
79346;SDS011;68815;48.810;44.482;2023-11-21T02:30:18;15.6;;;6.7;;
79346;SDS011;68815;48.810;44.482;2023-11-21T02:33:19;16.9;;;6.9;;
79346;SDS011;68815;48.810;44.482;2023-11-21T02:36:21;15.2;;;6.6;;
79346;SDS011;68815;48.810;44.482;2023-11-21T02:39:23;11.1;;;4.8;;
79346;SDS011;68815;48.810;44.482;2023-11-21T02:42:25;11.2;;;4.2;;
79346;SDS011;68815;48.810;44.482;2023-11-21T02:45:27;10.7;;;4.3;;
79346;SDS011;68815;48.810;44.482;2023-11-21T02:48:28;11.5;;;4.9;;
79346;SDS011;68815;48.810;44.482;2023-11-21T02:51:30;14;;;5.5;;
79346;SDS011;68815;48.810;44.482;2023-11-21T02:54:32;10.4;;;3.9;;
79346;SDS011;68815;48.810;44.482;2023-11-21T02:57:33;8.5;;;3.8;;
79346;SDS011;68815;48.810;44.482;2023-11-21T03:00:35;9.5;;;4;;
79346;SDS011;68815;48.810;44.482;2023-11-21T03:03:36;10.2;;;3.7;;
79346;SDS011;68815;48.810;44.482;2023-11-21T03:06:38;8.1;;;3.5;;
79346;SDS011;68815;48.810;44.482;2023-11-21T03:09:40;8.6;;;3.9;;
79346;SDS011;68815;48.810;44.482;2023-11-21T03:12:41;11.4;;;5.5;;
79346;SDS011;68815;48.810;44.482;2023-11-21T03:15:43;13.3;;;5.2;;
79346;SDS011;68815;48.810;44.482;2023-11-21T03:18:44;15.2;;;5.9;;
79346;SDS011;68815;48.810;44.482;2023-11-21T03:21:46;9;;;3.9;;
79346;SDS011;68815;48.810;44.482;2023-11-21T03:24:48;12.5;;;5;;
79346;SDS011;68815;48.810;44.482;2023-11-21T03:27:50;13.2;;;6;;
79346;SDS011;68815;48.810;44.482;2023-11-21T03:30:51;12.2;;;5.5;;
79346;SDS011;68815;48.810;44.482;2023-11-21T03:33:53;9;;;3.7;;
79346;SDS011;68815;48.810;44.482;2023-11-21T03:36:54;5.4;;;2.1;;
79346;SDS011;68815;48.810;44.482;2023-11-21T03:39:56;4.8;;;1.8;;
79346;SDS011;68815;48.810;44.482;2023-11-21T03:42:58;5.6;;;2.5;;
79346;SDS011;68815;48.810;44.482;2023-11-21T03:46:00;4.9;;;2;;
79346;SDS011;68815;48.810;44.482;2023-11-21T03:49:01;4;;;1.7;;
79346;SDS011;68815;48.810;44.482;2023-11-21T03:52:05;3.1;;;1.4;;
79346;SDS011;68815;48.810;44.482;2023-11-21T03:55:08;4.3;;;1.5;;
79346;SDS011;68815;48.810;44.482;2023-11-21T03:58:09;3;;;1.2;;
79346;SDS011;68815;48.810;44.482;2023-11-21T04:01:11;3.3;;;1;;
79346;SDS011;68815;48.810;44.482;2023-11-21T04:04:12;2.9;;;0.9;;
79346;SDS011;68815;48.810;44.482;2023-11-21T04:07:14;2.9;;;1.1;;
79346;SDS011;68815;48.810;44.482;2023-11-21T04:10:16;3.3;;;1;;
79346;SDS011;68815;48.810;44.482;2023-11-21T04:13:17;2.8;;;1;;
79346;SDS011;68815;48.810;44.482;2023-11-21T04:16:19;3.1;;;1.1;;
79346;SDS011;68815;48.810;44.482;2023-11-21T04:19:21;2.7;;;0.9;;
79346;SDS011;68815;48.810;44.482;2023-11-21T04:22:23;3;;;0.9;;
79346;SDS011;68815;48.810;44.482;2023-11-21T04:25:24;2.7;;;0.9;;
79346;SDS011;68815;48.810;44.482;2023-11-21T04:28:26;2.6;;;0.8;;
79346;SDS011;68815;48.810;44.482;2023-11-21T04:31:27;3;;;0.9;;
79346;SDS011;68815;48.810;44.482;2023-11-21T04:34:29;2.7;;;1;;
79346;SDS011;68815;48.810;44.482;2023-11-21T04:37:30;3;;;0.9;;
79346;SDS011;68815;48.810;44.482;2023-11-21T04:40:32;3.1;;;1.2;;
79346;SDS011;68815;48.810;44.482;2023-11-21T04:43:33;6.4;;;2.5;;
79346;SDS011;68815;48.810;44.482;2023-11-21T04:46:35;3.8;;;0.9;;
79346;SDS011;68815;48.810;44.482;2023-11-21T04:49:42;2.6;;;0.9;;
79346;SDS011;68815;48.810;44.482;2023-11-21T04:52:44;3.2;;;1.1;;
79346;SDS011;68815;48.810;44.482;2023-11-21T04:55:46;3;;;1;;
79346;SDS011;68815;48.810;44.482;2023-11-21T04:58:48;2.5;;;0.8;;
79346;SDS011;68815;48.810;44.482;2023-11-21T05:01:49;2.8;;;0.9;;
79346;SDS011;68815;48.810;44.482;2023-11-21T05:04:51;2.6;;;1;;
79346;SDS011;68815;48.810;44.482;2023-11-21T05:07:52;2.7;;;0.9;;
79346;SDS011;68815;48.810;44.482;2023-11-21T05:10:54;2.9;;;1.1;;
79346;SDS011;68815;48.810;44.482;2023-11-21T05:13:55;2.7;;;1;;
79346;SDS011;68815;48.810;44.482;2023-11-21T05:16:57;2.8;;;1;;
79346;SDS011;68815;48.810;44.482;2023-11-21T05:19:58;2.7;;;1.1;;
79346;SDS011;68815;48.810;44.482;2023-11-21T05:23:00;3;;;0.9;;
79346;SDS011;68815;48.810;44.482;2023-11-21T05:26:02;3;;;1;;
79346;SDS011;68815;48.810;44.482;2023-11-21T05:29:03;3.1;;;1.1;;
79346;SDS011;68815;48.810;44.482;2023-11-21T05:32:05;3.2;;;1.2;;
79346;SDS011;68815;48.810;44.482;2023-11-21T05:35:07;3.1;;;1.1;;
79346;SDS011;68815;48.810;44.482;2023-11-21T05:38:09;3;;;1;;
79346;SDS011;68815;48.810;44.482;2023-11-21T05:41:11;2.7;;;1.1;;
79346;SDS011;68815;48.810;44.482;2023-11-21T05:44:12;3.5;;;1.3;;
79346;SDS011;68815;48.810;44.482;2023-11-21T05:47:14;3.8;;;1.3;;
79346;SDS011;68815;48.810;44.482;2023-11-21T05:50:16;3.3;;;1.3;;
79346;SDS011;68815;48.810;44.482;2023-11-21T05:53:19;3.6;;;1.5;;
79346;SDS011;68815;48.810;44.482;2023-11-21T05:56:20;3.5;;;1.6;;
79346;SDS011;68815;48.810;44.482;2023-11-21T05:59:22;3.8;;;1.4;;
79346;SDS011;68815;48.810;44.482;2023-11-21T06:02:24;3.8;;;1.4;;
79346;SDS011;68815;48.810;44.482;2023-11-21T06:05:26;3.3;;;1.4;;
79346;SDS011;68815;48.810;44.482;2023-11-21T06:08:27;4.4;;;1.5;;
79346;SDS011;68815;48.810;44.482;2023-11-21T06:11:29;3.5;;;1.5;;
79346;SDS011;68815;48.810;44.482;2023-11-21T06:14:31;4.4;;;1.5;;
79346;SDS011;68815;48.810;44.482;2023-11-21T06:17:32;3.3;;;1.4;;
79346;SDS011;68815;48.810;44.482;2023-11-21T06:20:34;3.5;;;1.4;;
79346;SDS011;68815;48.810;44.482;2023-11-21T06:23:35;4.4;;;1.4;;
79346;SDS011;68815;48.810;44.482;2023-11-21T06:26:37;3.5;;;1.4;;
79346;SDS011;68815;48.810;44.482;2023-11-21T06:29:39;3.7;;;1.6;;
79346;SDS011;68815;48.810;44.482;2023-11-21T06:32:42;3.9;;;1.7;;
79346;SDS011;68815;48.810;44.482;2023-11-21T06:35:44;4.9;;;1.6;;
79346;SDS011;68815;48.810;44.482;2023-11-21T06:38:46;6.3;;;1.7;;
79346;SDS011;68815;48.810;44.482;2023-11-21T06:41:47;3.9;;;1.5;;
79346;SDS011;68815;48.810;44.482;2023-11-21T06:44:49;3.9;;;1.4;;
79346;SDS011;68815;48.810;44.482;2023-11-21T06:47:50;3.6;;;1.5;;
79346;SDS011;68815;48.810;44.482;2023-11-21T06:50:52;4.3;;;1.5;;
79346;SDS011;68815;48.810;44.482;2023-11-21T06:53:54;3.3;;;1.5;;
79346;SDS011;68815;48.810;44.482;2023-11-21T06:57:00;2.9;;;1;;
79346;SDS011;68815;48.810;44.482;2023-11-21T07:00:03;2.6;;;0.9;;
79346;SDS011;68815;48.810;44.482;2023-11-21T07:03:05;2.8;;;1;;
79346;SDS011;68815;48.810;44.482;2023-11-21T07:06:06;2.9;;;1.1;;
79346;SDS011;68815;48.810;44.482;2023-11-21T07:09:08;3.7;;;1;;
79346;SDS011;68815;48.810;44.482;2023-11-21T07:12:10;3.2;;;1;;
79346;SDS011;68815;48.810;44.482;2023-11-21T07:15:11;3;;;1.1;;
79346;SDS011;68815;48.810;44.482;2023-11-21T07:18:13;2.5;;;0.9;;
79346;SDS011;68815;48.810;44.482;2023-11-21T07:21:15;2.4;;;0.8;;
79346;SDS011;68815;48.810;44.482;2023-11-21T07:24:17;2.8;;;1.1;;
79346;SDS011;68815;48.810;44.482;2023-11-21T07:27:19;4;;;1.2;;
79346;SDS011;68815;48.810;44.482;2023-11-21T07:30:20;2.6;;;0.9;;
79346;SDS011;68815;48.810;44.482;2023-11-21T07:33:22;3.7;;;1.3;;
79346;SDS011;68815;48.810;44.482;2023-11-21T07:36:24;2.6;;;1;;
79346;SDS011;68815;48.810;44.482;2023-11-21T07:39:26;2.7;;;1.1;;
79346;SDS011;68815;48.810;44.482;2023-11-21T07:42:27;2.6;;;0.9;;
79346;SDS011;68815;48.810;44.482;2023-11-21T07:45:29;2.7;;;1;;
79346;SDS011;68815;48.810;44.482;2023-11-21T07:48:30;2.5;;;0.9;;
79346;SDS011;68815;48.810;44.482;2023-11-21T07:51:32;2.7;;;1;;
79346;SDS011;68815;48.810;44.482;2023-11-21T07:54:34;3.1;;;1.2;;
79346;SDS011;68815;48.810;44.482;2023-11-21T07:57:36;2.7;;;1.1;;
79346;SDS011;68815;48.810;44.482;2023-11-21T08:00:38;2.8;;;1;;
79346;SDS011;68815;48.810;44.482;2023-11-21T08:03:39;2.9;;;1.2;;
79346;SDS011;68815;48.810;44.482;2023-11-21T08:06:41;2.6;;;0.9;;
79346;SDS011;68815;48.810;44.482;2023-11-21T08:09:42;2.9;;;0.9;;
79346;SDS011;68815;48.810;44.482;2023-11-21T08:12:44;2.6;;;0.9;;
79346;SDS011;68815;48.810;44.482;2023-11-21T08:15:54;2.7;;;1;;
79346;SDS011;68815;48.810;44.482;2023-11-21T08:18:56;2.4;;;0.8;;
79346;SDS011;68815;48.810;44.482;2023-11-21T08:21:57;2.4;;;0.8;;
79346;SDS011;68815;48.810;44.482;2023-11-21T08:24:59;2.6;;;1;;
79346;SDS011;68815;48.810;44.482;2023-11-21T08:28:01;2.6;;;0.9;;
79346;SDS011;68815;48.810;44.482;2023-11-21T08:31:02;2.7;;;0.8;;
79346;SDS011;68815;48.810;44.482;2023-11-21T08:34:04;3.2;;;0.9;;
79346;SDS011;68815;48.810;44.482;2023-11-21T08:37:06;2.8;;;0.8;;
79346;SDS011;68815;48.810;44.482;2023-11-21T08:40:08;2.5;;;0.8;;
79346;SDS011;68815;48.810;44.482;2023-11-21T08:43:10;2.5;;;0.8;;
79346;SDS011;68815;48.810;44.482;2023-11-21T08:46:11;2.5;;;0.8;;
79346;SDS011;68815;48.810;44.482;2023-11-21T08:49:13;2.6;;;1;;
79346;SDS011;68815;48.810;44.482;2023-11-21T08:52:14;2.1;;;0.8;;
79346;SDS011;68815;48.810;44.482;2023-11-21T08:55:16;2.3;;;0.8;;
79346;SDS011;68815;48.810;44.482;2023-11-21T08:58:18;1.9;;;0.6;;
79346;SDS011;68815;48.810;44.482;2023-11-21T09:01:19;2.3;;;0.8;;
79346;SDS011;68815;48.810;44.482;2023-11-21T09:04:20;2.6;;;0.7;;
79346;SDS011;68815;48.810;44.482;2023-11-21T09:07:22;2;;;0.7;;
79346;SDS011;68815;48.810;44.482;2023-11-21T09:10:23;2;;;0.6;;
79346;SDS011;68815;48.810;44.482;2023-11-21T09:13:25;2.4;;;0.7;;
79346;SDS011;68815;48.810;44.482;2023-11-21T09:16:27;2.5;;;0.8;;
79346;SDS011;68815;48.810;44.482;2023-11-21T09:19:29;2.7;;;0.7;;
79346;SDS011;68815;48.810;44.482;2023-11-21T09:22:31;2.7;;;0.8;;
79346;SDS011;68815;48.810;44.482;2023-11-21T09:25:32;2.3;;;0.9;;
79346;SDS011;68815;48.810;44.482;2023-11-21T09:28:34;2.4;;;0.7;;
79346;SDS011;68815;48.810;44.482;2023-11-21T09:31:37;2.2;;;0.8;;
79346;SDS011;68815;48.810;44.482;2023-11-21T09:34:39;2.7;;;0.7;;
79346;SDS011;68815;48.810;44.482;2023-11-21T09:37:40;2.7;;;1;;
79346;SDS011;68815;48.810;44.482;2023-11-21T09:40:42;2;;;0.7;;
79346;SDS011;68815;48.810;44.482;2023-11-21T09:43:49;2.4;;;0.9;;
79346;SDS011;68815;48.810;44.482;2023-11-21T09:47:08;2.6;;;0.9;;
79346;SDS011;68815;48.810;44.482;2023-11-21T09:50:16;2.7;;;1;;
79346;SDS011;68815;48.810;44.482;2023-11-21T09:53:21;3;;;0.9;;
79346;SDS011;68815;48.810;44.482;2023-11-21T09:56:24;2.3;;;0.8;;
79346;SDS011;68815;48.810;44.482;2023-11-21T09:59:27;3.1;;;1;;
79346;SDS011;68815;48.810;44.482;2023-11-21T10:02:33;3;;;1.1;;
79346;SDS011;68815;48.810;44.482;2023-11-21T10:05:36;2.9;;;1.1;;
79346;SDS011;68815;48.810;44.482;2023-11-21T10:08:38;2.7;;;1;;
79346;SDS011;68815;48.810;44.482;2023-11-21T10:11:40;2.5;;;1;;
79346;SDS011;68815;48.810;44.482;2023-11-21T10:14:42;2.7;;;1;;
79346;SDS011;68815;48.810;44.482;2023-11-21T10:17:50;2.4;;;1;;
79346;SDS011;68815;48.810;44.482;2023-11-21T10:20:54;3.1;;;1;;
79346;SDS011;68815;48.810;44.482;2023-11-21T10:23:57;2.9;;;1.1;;
79346;SDS011;68815;48.810;44.482;2023-11-21T10:26:58;3.1;;;1.1;;
79346;SDS011;68815;48.810;44.482;2023-11-21T10:30:00;3.5;;;1.2;;
79346;SDS011;68815;48.810;44.482;2023-11-21T10:33:02;2.9;;;1.2;;
79346;SDS011;68815;48.810;44.482;2023-11-21T10:36:05;4.5;;;1.4;;
79346;SDS011;68815;48.810;44.482;2023-11-21T10:39:06;4;;;1.2;;
79346;SDS011;68815;48.810;44.482;2023-11-21T10:42:08;2.8;;;1.1;;
79346;SDS011;68815;48.810;44.482;2023-11-21T10:45:10;2.9;;;1.2;;
79346;SDS011;68815;48.810;44.482;2023-11-21T10:48:12;3.1;;;1.2;;
79346;SDS011;68815;48.810;44.482;2023-11-21T10:51:15;2.8;;;1.1;;
79346;SDS011;68815;48.810;44.482;2023-11-21T10:54:18;3.2;;;1.2;;
79346;SDS011;68815;48.810;44.482;2023-11-21T10:57:20;3.7;;;1.3;;
79346;SDS011;68815;48.810;44.482;2023-11-21T11:00:23;4.1;;;2;;
79346;SDS011;68815;48.810;44.482;2023-11-21T11:03:26;3.4;;;1.3;;
79346;SDS011;68815;48.810;44.482;2023-11-21T11:06:28;3.9;;;1.3;;
79346;SDS011;68815;48.810;44.482;2023-11-21T11:09:29;3.1;;;1.4;;
79346;SDS011;68815;48.810;44.482;2023-11-21T11:12:32;3.6;;;1.5;;
79346;SDS011;68815;48.810;44.482;2023-11-21T11:15:33;3.1;;;1.2;;
79346;SDS011;68815;48.810;44.482;2023-11-21T11:18:35;3.2;;;1.4;;
79346;SDS011;68815;48.810;44.482;2023-11-21T11:21:39;3.5;;;1.4;;
79346;SDS011;68815;48.810;44.482;2023-11-21T11:24:59;3.5;;;1.3;;
79346;SDS011;68815;48.810;44.482;2023-11-21T11:28:19;3.2;;;1.5;;
79346;SDS011;68815;48.810;44.482;2023-11-21T11:31:26;5.2;;;1.7;;
79346;SDS011;68815;48.810;44.482;2023-11-21T11:34:39;3.8;;;1.6;;
79346;SDS011;68815;48.810;44.482;2023-11-21T11:37:47;4.3;;;2;;
79346;SDS011;68815;48.810;44.482;2023-11-21T11:40:52;3.7;;;1.5;;
79346;SDS011;68815;48.810;44.482;2023-11-21T11:43:54;4.1;;;1.7;;
79346;SDS011;68815;48.810;44.482;2023-11-21T11:46:56;3.8;;;1.8;;
79346;SDS011;68815;48.810;44.482;2023-11-21T11:49:58;4.2;;;1.9;;
79346;SDS011;68815;48.810;44.482;2023-11-21T11:56:20;4.2;;;1.9;;
79346;SDS011;68815;48.810;44.482;2023-11-21T11:59:23;4.8;;;2.1;;
79346;SDS011;68815;48.810;44.482;2023-11-21T12:02:25;4.4;;;2;;
79346;SDS011;68815;48.810;44.482;2023-11-21T12:05:26;4.6;;;2.1;;
79346;SDS011;68815;48.810;44.482;2023-11-21T12:08:28;4.2;;;2.1;;
79346;SDS011;68815;48.810;44.482;2023-11-21T12:11:30;4.2;;;1.8;;
79346;SDS011;68815;48.810;44.482;2023-11-21T12:14:32;4.8;;;1.9;;
79346;SDS011;68815;48.810;44.482;2023-11-21T12:17:34;4.5;;;1.9;;
79346;SDS011;68815;48.810;44.482;2023-11-21T12:20:36;5.4;;;2.2;;
79346;SDS011;68815;48.810;44.482;2023-11-21T12:23:38;4;;;1.9;;
79346;SDS011;68815;48.810;44.482;2023-11-21T12:26:39;4.7;;;2;;
79346;SDS011;68815;48.810;44.482;2023-11-21T12:29:41;4.7;;;2.2;;
79346;SDS011;68815;48.810;44.482;2023-11-21T12:32:43;4.7;;;1.9;;
79346;SDS011;68815;48.810;44.482;2023-11-21T12:35:51;6.4;;;1.9;;
79346;SDS011;68815;48.810;44.482;2023-11-21T12:38:52;5.1;;;2;;
79346;SDS011;68815;48.810;44.482;2023-11-21T12:41:54;4.6;;;2;;
79346;SDS011;68815;48.810;44.482;2023-11-21T12:48:09;5.2;;;2.2;;
79346;SDS011;68815;48.810;44.482;2023-11-21T12:51:11;6.1;;;2.5;;
79346;SDS011;68815;48.810;44.482;2023-11-21T12:54:13;6.6;;;2.6;;
79346;SDS011;68815;48.810;44.482;2023-11-21T12:57:15;6;;;2.7;;
79346;SDS011;68815;48.810;44.482;2023-11-21T13:00:18;6.1;;;2.8;;
79346;SDS011;68815;48.810;44.482;2023-11-21T13:03:20;5.8;;;2.9;;
79346;SDS011;68815;48.810;44.482;2023-11-21T13:06:22;7;;;3;;
79346;SDS011;68815;48.810;44.482;2023-11-21T13:09:24;7.6;;;3.7;;
79346;SDS011;68815;48.810;44.482;2023-11-21T13:12:25;7.1;;;3;;
79346;SDS011;68815;48.810;44.482;2023-11-21T13:15:27;7.4;;;3.1;;
79346;SDS011;68815;48.810;44.482;2023-11-21T13:18:29;7.7;;;3;;
79346;SDS011;68815;48.810;44.482;2023-11-21T13:21:31;6.5;;;3.1;;
79346;SDS011;68815;48.810;44.482;2023-11-21T13:24:32;5.9;;;3;;
79346;SDS011;68815;48.810;44.482;2023-11-21T13:27:34;7.5;;;3.2;;
79346;SDS011;68815;48.810;44.482;2023-11-21T13:30:35;7.3;;;3.3;;
79346;SDS011;68815;48.810;44.482;2023-11-21T13:33:37;6.9;;;3.4;;
79346;SDS011;68815;48.810;44.482;2023-11-21T13:36:38;7.2;;;3.4;;
79346;SDS011;68815;48.810;44.482;2023-11-21T13:39:40;6.2;;;3.1;;
79346;SDS011;68815;48.810;44.482;2023-11-21T13:42:41;6.9;;;3.4;;
79346;SDS011;68815;48.810;44.482;2023-11-21T13:45:43;8;;;3.5;;
79346;SDS011;68815;48.810;44.482;2023-11-21T13:48:46;7.6;;;3.7;;
79346;SDS011;68815;48.810;44.482;2023-11-21T13:51:48;7.7;;;3.6;;
79346;SDS011;68815;48.810;44.482;2023-11-21T13:54:49;8;;;3.3;;
79346;SDS011;68815;48.810;44.482;2023-11-21T13:57:51;7.3;;;3.4;;
79346;SDS011;68815;48.810;44.482;2023-11-21T14:00:54;8.5;;;3.6;;
79346;SDS011;68815;48.810;44.482;2023-11-21T14:03:56;8.1;;;3.2;;
79346;SDS011;68815;48.810;44.482;2023-11-21T14:06:57;6.9;;;3.4;;
79346;SDS011;68815;48.810;44.482;2023-11-21T14:09:59;6.5;;;3.2;;
79346;SDS011;68815;48.810;44.482;2023-11-21T14:13:01;7.1;;;3.1;;
79346;SDS011;68815;48.810;44.482;2023-11-21T14:16:03;6.2;;;3.4;;
79346;SDS011;68815;48.810;44.482;2023-11-21T14:19:05;8.9;;;3.8;;
79346;SDS011;68815;48.810;44.482;2023-11-21T14:22:06;6.4;;;3.4;;
79346;SDS011;68815;48.810;44.482;2023-11-21T14:25:08;8.4;;;3.9;;
79346;SDS011;68815;48.810;44.482;2023-11-21T14:28:10;9.2;;;4.3;;
79346;SDS011;68815;48.810;44.482;2023-11-21T14:31:11;9;;;4.3;;
79346;SDS011;68815;48.810;44.482;2023-11-21T14:34:13;8.2;;;3.4;;
79346;SDS011;68815;48.810;44.482;2023-11-21T14:37:14;8.4;;;3.8;;
79346;SDS011;68815;48.810;44.482;2023-11-21T14:40:16;7.1;;;3.7;;
79346;SDS011;68815;48.810;44.482;2023-11-21T14:43:18;6.9;;;3.6;;
79346;SDS011;68815;48.810;44.482;2023-11-21T14:46:19;8;;;4.4;;
79346;SDS011;68815;48.810;44.482;2023-11-21T14:49:21;7.5;;;4.1;;
79346;SDS011;68815;48.810;44.482;2023-11-21T14:52:23;9;;;4.3;;
79346;SDS011;68815;48.810;44.482;2023-11-21T14:55:25;8.6;;;4.4;;
79346;SDS011;68815;48.810;44.482;2023-11-21T14:58:26;9.1;;;4.3;;
79346;SDS011;68815;48.810;44.482;2023-11-21T15:01:30;9.5;;;4.7;;
79346;SDS011;68815;48.810;44.482;2023-11-21T15:04:33;10;;;4.6;;
79346;SDS011;68815;48.810;44.482;2023-11-21T15:07:34;10.5;;;4.6;;
79346;SDS011;68815;48.810;44.482;2023-11-21T15:10:36;9.1;;;4.5;;
79346;SDS011;68815;48.810;44.482;2023-11-21T15:13:37;8.7;;;4.1;;
79346;SDS011;68815;48.810;44.482;2023-11-21T15:16:39;8.7;;;4.6;;
79346;SDS011;68815;48.810;44.482;2023-11-21T15:19:40;9.8;;;4.7;;
79346;SDS011;68815;48.810;44.482;2023-11-21T15:22:42;7.8;;;4.4;;
79346;SDS011;68815;48.810;44.482;2023-11-21T15:25:44;13.2;;;5;;
79346;SDS011;68815;48.810;44.482;2023-11-21T15:28:46;8.5;;;4.6;;
79346;SDS011;68815;48.810;44.482;2023-11-21T15:31:48;8.4;;;4.2;;
79346;SDS011;68815;48.810;44.482;2023-11-21T15:34:49;10.6;;;4.7;;
79346;SDS011;68815;48.810;44.482;2023-11-21T15:37:51;9.5;;;4.5;;
79346;SDS011;68815;48.810;44.482;2023-11-21T15:40:52;9.4;;;4.7;;
79346;SDS011;68815;48.810;44.482;2023-11-21T15:43:54;10.5;;;5.2;;
79346;SDS011;68815;48.810;44.482;2023-11-21T15:46:55;10.4;;;5.5;;
79346;SDS011;68815;48.810;44.482;2023-11-21T15:49:57;11.2;;;5.8;;
79346;SDS011;68815;48.810;44.482;2023-11-21T15:53:00;9.8;;;4.8;;
79346;SDS011;68815;48.810;44.482;2023-11-21T15:56:03;11.7;;;5.1;;
79346;SDS011;68815;48.810;44.482;2023-11-21T15:59:05;10.5;;;4.7;;
79346;SDS011;68815;48.810;44.482;2023-11-21T16:02:07;9.7;;;4.9;;
79346;SDS011;68815;48.810;44.482;2023-11-21T16:05:09;9.2;;;5.1;;
79346;SDS011;68815;48.810;44.482;2023-11-21T16:08:11;11.7;;;5.1;;
79346;SDS011;68815;48.810;44.482;2023-11-21T16:11:12;11.4;;;5.4;;
79346;SDS011;68815;48.810;44.482;2023-11-21T16:14:14;11.4;;;5.1;;
79346;SDS011;68815;48.810;44.482;2023-11-21T16:17:15;11.6;;;5.2;;
79346;SDS011;68815;48.810;44.482;2023-11-21T16:20:17;12.2;;;5.4;;
79346;SDS011;68815;48.810;44.482;2023-11-21T16:23:19;11.7;;;5.6;;
79346;SDS011;68815;48.810;44.482;2023-11-21T16:26:21;10.3;;;5.1;;
79346;SDS011;68815;48.810;44.482;2023-11-21T16:29:22;10.8;;;4.8;;
79346;SDS011;68815;48.810;44.482;2023-11-21T16:32:24;12.4;;;5.2;;
79346;SDS011;68815;48.810;44.482;2023-11-21T16:35:25;11.7;;;5.4;;
79346;SDS011;68815;48.810;44.482;2023-11-21T16:38:27;11.4;;;5.4;;
79346;SDS011;68815;48.810;44.482;2023-11-21T16:41:28;10.3;;;5.5;;
79346;SDS011;68815;48.810;44.482;2023-11-21T16:44:30;12.5;;;5.2;;
79346;SDS011;68815;48.810;44.482;2023-11-21T16:47:31;13.9;;;5;;
79346;SDS011;68815;48.810;44.482;2023-11-21T16:50:33;10.8;;;4.6;;
79346;SDS011;68815;48.810;44.482;2023-11-21T16:53:35;10.8;;;4.7;;
79346;SDS011;68815;48.810;44.482;2023-11-21T16:56:37;11.4;;;4.7;;
79346;SDS011;68815;48.810;44.482;2023-11-21T16:59:38;9;;;4.1;;
79346;SDS011;68815;48.810;44.482;2023-11-21T17:02:40;9.8;;;4.8;;
79346;SDS011;68815;48.810;44.482;2023-11-21T17:05:41;11;;;5.2;;
79346;SDS011;68815;48.810;44.482;2023-11-21T17:08:43;8.7;;;4.4;;
79346;SDS011;68815;48.810;44.482;2023-11-21T17:11:46;8;;;4;;
79346;SDS011;68815;48.810;44.482;2023-11-21T17:14:48;9.6;;;4.2;;
79346;SDS011;68815;48.810;44.482;2023-11-21T17:17:50;9.1;;;4.2;;
79346;SDS011;68815;48.810;44.482;2023-11-21T17:20:51;8.8;;;4.2;;
79346;SDS011;68815;48.810;44.482;2023-11-21T17:23:53;6.8;;;3.8;;
79346;SDS011;68815;48.810;44.482;2023-11-21T17:26:54;8.3;;;4.1;;
79346;SDS011;68815;48.810;44.482;2023-11-21T17:29:56;6.7;;;3.7;;
79346;SDS011;68815;48.810;44.482;2023-11-21T17:32:58;7;;;3.9;;
79346;SDS011;68815;48.810;44.482;2023-11-21T17:36:00;7.9;;;3.6;;
79346;SDS011;68815;48.810;44.482;2023-11-21T17:39:01;7.7;;;4.2;;
79346;SDS011;68815;48.810;44.482;2023-11-21T17:42:05;7.6;;;3.7;;
79346;SDS011;68815;48.810;44.482;2023-11-21T17:45:07;7.6;;;3.7;;
79346;SDS011;68815;48.810;44.482;2023-11-21T17:48:09;7.7;;;4;;
79346;SDS011;68815;48.810;44.482;2023-11-21T17:51:11;7.8;;;3.6;;
79346;SDS011;68815;48.810;44.482;2023-11-21T17:54:13;7.2;;;3.9;;
79346;SDS011;68815;48.810;44.482;2023-11-21T17:57:14;7.9;;;3.7;;
79346;SDS011;68815;48.810;44.482;2023-11-21T18:00:16;7.4;;;3.7;;
79346;SDS011;68815;48.810;44.482;2023-11-21T18:03:18;8.5;;;4.5;;
79346;SDS011;68815;48.810;44.482;2023-11-21T18:06:20;7.5;;;4.1;;
79346;SDS011;68815;48.810;44.482;2023-11-21T18:09:21;9;;;4.2;;
79346;SDS011;68815;48.810;44.482;2023-11-21T18:12:23;12.8;;;4.6;;
79346;SDS011;68815;48.810;44.482;2023-11-21T18:15:24;8.7;;;4.1;;
79346;SDS011;68815;48.810;44.482;2023-11-21T18:18:26;12.9;;;4.5;;
79346;SDS011;68815;48.810;44.482;2023-11-21T18:21:27;10.9;;;4.6;;
79346;SDS011;68815;48.810;44.482;2023-11-21T18:24:29;9.8;;;4.9;;
79346;SDS011;68815;48.810;44.482;2023-11-21T18:27:31;10;;;4.3;;
79346;SDS011;68815;48.810;44.482;2023-11-21T18:30:32;11.8;;;4.7;;
79346;SDS011;68815;48.810;44.482;2023-11-21T18:33:34;10.1;;;4.1;;
79346;SDS011;68815;48.810;44.482;2023-11-21T18:36:35;7.6;;;4;;
79346;SDS011;68815;48.810;44.482;2023-11-21T18:39:37;10.5;;;4.5;;
79346;SDS011;68815;48.810;44.482;2023-11-21T18:42:38;8.6;;;4.5;;
79346;SDS011;68815;48.810;44.482;2023-11-21T18:45:40;10.1;;;4.6;;